Time;durP1;ratioP1;P1;durP2;ratioP2;P2;SDS_P1;SDS_P2;PMS_P1;PMS_P2;Temp;Humidity;BMP_temperature;BMP_pressure;BME280_temperature;BME280_humidity;BME280_pressure;Samples;Min_cycle;Max_cycle;Signal;HPM_P1;HPM_P2
2022/01/24 00:01:58;;;;;;;13.33;11.60;;;;;;;2.48;86.07;96972.06;4359300;32;20277;-57
2022/01/24 00:04:24;;;;;;;13.47;11.90;;;;;;;2.35;86.52;96964.97;4343230;32;20378;-57
2022/01/24 00:06:51;;;;;;;14.27;12.77;;;;;;;2.05;87.58;96964.56;4347454;32;20265;-57
2022/01/24 00:09:17;;;;;;;13.20;11.80;;;;;;;2.26;87.19;96968.81;4373288;32;20347;-58
2022/01/24 00:11:57;;;;;;;16.17;13.43;;;;;;;2.26;87.25;96966.19;4380710;32;20277;-57
2022/01/24 00:28:13;;;;;;;13.53;11.77;;;;;;;1.74;89.96;96967.69;4330487;32;20394;-57
2022/01/24 00:30:39;;;;;;;14.87;12.80;;;;;;;2.02;88.62;96971.00;4321847;32;20294;-57
2022/01/24 00:33:05;;;;;;;15.27;12.27;;;;;;;1.91;88.74;96970.75;4332918;32;20338;-56
2022/01/24 00:35:36;;;;;;;14.00;12.53;;;;;;;2.09;88.22;96970.97;4310833;32;20361;-58
2022/01/24 00:38:03;;;;;;;14.40;11.70;;;;;;;1.96;88.60;96968.34;4314195;32;20197;-55
2022/01/24 00:40:38;;;;;;;15.97;12.60;;;;;;;1.97;88.50;96967.34;4342911;32;20333;-54
2022/01/24 00:43:20;;;;;;;13.80;12.10;;;;;;;2.07;88.41;96967.78;4376423;32;20335;-56
2022/01/24 00:46:05;;;;;;;13.87;11.43;;;;;;;2.03;88.40;96967.37;4359713;32;20347;-57
2022/01/24 00:54:42;;;;;;;13.23;11.83;;;;;;;1.88;88.74;96958.06;4368712;32;20328;-57
2022/01/24 00:56:47;;;;;;;12.87;10.90;;;;;;;1.98;87.90;96961.09;4392212;32;20280;-55
2022/01/24 00:59:13;;;;;;;13.93;11.57;;;;;;;2.10;87.49;96953.47;4402159;32;20280;-57
2022/01/24 01:01:39;;;;;;;14.27;11.83;;;;;;;2.16;87.47;96950.88;4374125;32;20294;-55
2022/01/24 01:04:07;;;;;;;12.47;10.73;;;;;;;2.08;87.57;96951.84;4371712;32;20168;-57
2022/01/24 01:06:32;;;;;;;13.00;11.13;;;;;;;1.99;87.52;96950.44;4381801;32;20273;-56
2022/01/24 01:19:58;;;;;;;11.13;10.03;;;;;;;1.80;88.40;96938.13;4375291;32;20307;-56
2022/01/24 01:22:24;;;;;;;10.93;9.93;;;;;;;1.80;88.03;96932.91;4354451;32;20367;-55
2022/01/24 01:24:54;;;;;;;11.60;10.27;;;;;;;1.90;87.99;96935.13;4355996;32;20396;-57
2022/01/24 01:27:32;;;;;;;12.03;10.80;;;;;;;1.90;88.08;96938.53;4359521;32;20184;-54
2022/01/24 01:30:07;;;;;;;11.13;9.73;;;;;;;1.72;88.31;96940.91;4352395;32;20291;-57
2022/01/24 01:57:16;;;;;;;10.87;9.77;;;;;;;1.85;86.21;96914.81;4379017;32;20316;-58
2022/01/24 01:59:41;;;;;;;11.33;10.10;;;;;;;1.59;87.26;96915.53;4342120;32;20275;-58
2022/01/24 02:02:07;;;;;;;12.10;10.87;;;;;;;1.44;88.00;96912.28;4368088;32;20306;-57
2022/01/24 02:04:34;;;;;;;11.57;10.37;;;;;;;1.30;88.90;96911.41;4401095;32;20200;-58
2022/01/24 02:07:02;;;;;;;11.27;10.13;;;;;;;1.35;89.07;96916.06;4397725;32;20291;-58
2022/01/24 02:09:34;;;;;;;11.77;9.77;;;;;;;1.42;89.14;96916.91;4354843;32;20277;-57
2022/01/24 02:12:03;;;;;;;11.50;10.30;;;;;;;1.75;87.69;96924.03;4408050;32;20415;-60
2022/01/24 02:14:34;;;;;;;10.90;9.83;;;;;;;1.88;86.67;96922.22;4377483;32;20291;-57
2022/01/24 02:17:45;;;;;;;12.00;10.20;;;;;;;2.01;85.99;96919.66;4392640;32;20300;-58
2022/01/24 02:25:53;;;;;;;10.10;9.07;;;;;;;1.64;87.78;96909.72;4392857;32;20385;-58
2022/01/24 02:28:20;;;;;;;10.40;9.33;;;;;;;1.94;86.74;96905.75;4386163;32;20355;-57
2022/01/24 02:33:45;;;;;;;11.80;10.13;;;;;;;1.92;85.40;96884.22;4348834;32;20291;-58
2022/01/24 02:36:18;;;;;;;11.20;10.03;;;;;;;1.69;86.65;96883.78;4333870;32;20288;-57
2022/01/24 02:38:59;;;;;;;11.67;10.33;;;;;;;1.76;86.28;96878.56;4368847;32;20316;-57
2022/01/24 02:49:43;;;;;;;10.57;9.50;;;;;;;1.47;87.75;96874.47;4374910;32;20328;-57
2022/01/24 02:52:14;;;;;;;10.90;9.43;;;;;;;1.20;88.70;96863.13;4406802;32;20305;-57
2022/01/24 02:54:46;;;;;;;11.30;9.90;;;;;;;1.12;88.94;96869.34;4354877;32;20292;-55
2022/01/24 02:57:12;;;;;;;12.07;10.80;;;;;;;0.89;90.00;96871.44;4360009;32;20296;-56
2022/01/24 02:59:39;;;;;;;12.15;10.85;;;;;;;0.80;90.27;96859.56;4340998;32;20284;-57
2022/01/24 03:02:05;;;;;;;11.80;9.98;;;;;;;1.05;89.85;96852.81;4359049;32;20235;-57
2022/01/24 03:04:32;;;;;;;12.10;10.80;;;;;;;1.09;89.55;96850.63;4373427;32;20211;-58
2022/01/24 03:06:59;;;;;;;11.85;10.65;;;;;;;1.11;89.61;96838.97;4357288;32;20284;-57
2022/01/24 03:09:26;;;;;;;12.60;10.35;;;;;;;1.20;89.04;96848.28;4355331;32;20226;-57
2022/01/24 03:12:11;;;;;;;11.55;9.85;;;;;;;1.37;88.78;96838.25;4353460;32;20286;-57
2022/01/24 03:14:38;;;;;;;12.50;10.20;;;;;;;1.50;88.21;96845.31;4371622;32;20314;-57
2022/01/24 03:17:09;;;;;;;13.93;11.33;;;;;;;1.49;87.60;96841.88;4351043;32;20216;-57
2022/01/24 03:19:37;;;;;;;11.73;9.75;;;;;;;1.50;87.52;96842.69;4344817;32;20407;-57
2022/01/24 03:22:03;;;;;;;13.60;11.00;;;;;;;1.70;87.01;96841.72;4364248;32;20207;-57
2022/01/24 03:24:32;;;;;;;12.35;10.65;;;;;;;1.77;86.27;96828.66;4366781;32;20277;-58
2022/01/24 03:26:59;;;;;;;10.90;9.27;;;;;;;1.74;86.34;96839.53;4344236;32;20212;-56
2022/01/24 03:29:28;;;;;;;11.97;10.43;;;;;;;1.51;86.52;96837.28;4351154;32;20270;-56
2022/01/24 03:31:55;;;;;;;11.67;10.47;;;;;;;1.34;88.10;96833.41;4347277;32;20248;-56
2022/01/24 03:34:22;;;;;;;12.33;9.97;;;;;;;1.35;88.05;96830.59;4393624;32;20404;-55
2022/01/24 03:36:49;;;;;;;12.00;10.80;;;;;;;1.27;88.24;96837.81;4344159;32;20312;-57
2022/01/24 03:39:15;;;;;;;12.48;10.32;;;;;;;1.48;87.98;96834.25;4371387;32;20372;-57
2022/01/24 03:41:43;;;;;;;11.13;10.03;;;;;;;1.45;87.75;96829.44;4351916;32;20200;-57
2022/01/24 03:44:12;;;;;;;12.47;11.07;;;;;;;1.56;87.55;96827.03;4365467;32;20276;-55
2022/01/24 03:46:59;;;;;;;11.63;9.87;;;;;;;1.46;87.49;96816.13;4380762;32;20296;-56
2022/01/24 03:52:24;;;;;;;11.50;10.13;;;;;;;1.41;87.82;96813.34;4358324;32;20303;-55
2022/01/24 03:54:50;;;;;;;13.60;11.07;;;;;;;1.62;86.69;96815.78;4347355;32;20287;-55
2022/01/24 03:57:18;;;;;;;11.67;10.50;;;;;;;1.51;87.13;96816.34;4315021;32;20314;-54
2022/01/24 03:59:45;;;;;;;10.87;9.43;;;;;;;1.49;87.52;96814.94;4356144;32;20193;-57
2022/01/24 04:02:13;;;;;;;13.13;11.07;;;;;;;1.51;87.28;96818.16;4338044;32;20282;-55
2022/01/24 04:04:39;;;;;;;12.53;10.47;;;;;;;1.76;86.21;96810.56;4358328;32;20213;-57
2022/01/24 04:07:05;;;;;;;11.60;10.40;;;;;;;1.67;86.51;96807.31;4376575;32;20304;-57
2022/01/24 04:09:33;;;;;;;11.93;10.43;;;;;;;1.70;86.40;96806.91;4365278;32;20288;-57
2022/01/24 04:11:59;;;;;;;10.93;9.83;;;;;;;1.80;85.75;96806.53;4380044;32;20272;-57
2022/01/24 04:14:53;;;;;;;12.17;10.80;;;;;;;1.81;85.94;96803.72;4350265;32;20310;-57
2022/01/24 04:17:23;;;;;;;11.57;10.37;;;;;;;1.73;86.13;96809.94;4346841;32;20299;-56
2022/01/24 04:22:33;;;;;;;10.83;9.73;;;;;;;1.82;85.79;96805.34;4349814;32;20281;-57
2022/01/24 04:25:02;;;;;;;10.40;9.37;;;;;;;1.95;85.13;96794.84;4346621;32;20295;-57
2022/01/24 04:27:29;;;;;;;10.90;9.77;;;;;;;1.99;84.71;96798.69;4365042;32;20276;-56
2022/01/24 04:29:56;;;;;;;11.53;10.20;;;;;;;1.98;85.22;96791.84;4383537;32;20234;-56
2022/01/24 04:32:23;;;;;;;11.47;10.03;;;;;;;1.80;85.82;96807.34;4376163;32;20380;-56
2022/01/24 04:34:51;;;;;;;13.37;11.13;;;;;;;1.92;85.80;96805.72;4356098;32;20292;-58
2022/01/24 04:37:19;;;;;;;12.27;9.83;;;;;;;1.85;85.98;96807.56;4346130;32;20282;-56
2022/01/24 04:39:47;;;;;;;11.80;10.53;;;;;;;1.90;85.52;96806.91;4365578;32;20312;-57
2022/01/24 04:42:25;;;;;;;12.80;10.50;;;;;;;1.81;86.07;96810.75;4369029;32;20277;-57
2022/01/24 04:50:20;;;;;;;11.57;10.37;;;;;;;1.87;85.66;96805.50;4345326;32;20331;-56
2022/01/24 04:53:07;;;;;;;13.20;10.60;;;;;;;2.01;84.80;96804.53;4359460;32;20392;-57
2022/01/24 04:55:33;;;;;;;12.07;10.77;;;;;;;1.83;85.00;96809.56;4356368;32;20296;-57
2022/01/24 04:57:59;;;;;;;12.43;10.83;;;;;;;1.98;84.96;96812.75;4391429;32;20280;-57
2022/01/24 05:00:25;;;;;;;13.23;11.03;;;;;;;1.88;84.67;96803.69;4358399;32;20200;-57
2022/01/24 05:02:53;;;;;;;10.83;9.73;;;;;;;2.05;84.20;96805.72;4381037;32;20494;-57
2022/01/24 05:05:21;;;;;;;11.20;10.07;;;;;;;2.04;84.43;96804.12;4390217;32;20188;-57
2022/01/24 05:07:50;;;;;;;10.53;9.50;;;;;;;2.02;84.40;96800.09;4390076;32;20276;-57
2022/01/24 05:10:24;;;;;;;12.00;10.57;;;;;;;2.10;84.21;96807.72;4374342;32;20273;-57
2022/01/24 05:23:34;;;;;;;11.53;10.33;;;;;;;1.90;84.65;96818.19;4357339;32;20310;-56
2022/01/24 05:26:01;;;;;;;11.37;9.90;;;;;;;1.89;84.26;96824.44;4386149;32;20333;-57
2022/01/24 05:28:29;;;;;;;11.77;10.50;;;;;;;1.94;84.17;96808.94;4336696;32;20284;-57
2022/01/24 05:30:58;;;;;;;12.70;11.40;;;;;;;1.94;83.87;96815.97;4355784;32;20360;-58
2022/01/24 05:33:26;;;;;;;14.10;11.20;;;;;;;1.80;84.37;96822.22;4344998;32;20281;-57
2022/01/24 05:35:56;;;;;;;14.23;10.77;;;;;;;1.57;85.26;96830.44;4391837;32;20198;-58
2022/01/24 05:38:23;;;;;;;12.93;10.13;;;;;;;1.66;84.83;96837.87;4356820;32;20310;-57
2022/01/24 05:40:52;;;;;;;14.13;10.47;;;;;;;1.39;85.25;96838.87;4403501;32;20290;-57
2022/01/24 05:43:23;;;;;;;13.27;11.13;;;;;;;1.28;86.19;96836.81;4357728;32;20304;-56
2022/01/24 05:45:53;;;;;;;11.63;10.10;;;;;;;1.65;85.34;96843.34;4372762;32;20323;-57
2022/01/24 05:48:19;;;;;;;12.03;10.50;;;;;;;1.63;84.21;96834.91;4375726;32;20281;-56
2022/01/24 05:50:47;;;;;;;11.90;10.10;;;;;;;1.48;84.80;96829.81;4386184;32;20333;-58
2022/01/24 05:53:14;;;;;;;12.07;10.77;;;;;;;1.70;84.54;96827.84;4396718;32;20302;-59
2022/01/24 05:55:42;;;;;;;12.83;10.77;;;;;;;1.50;84.55;96832.25;4389585;32;20302;-59
2022/01/24 05:58:08;;;;;;;12.20;10.53;;;;;;;1.57;85.13;96839.09;4384191;32;20296;-58
2022/01/24 06:00:34;;;;;;;11.57;10.38;;;;;;;1.60;84.82;96830.06;4342122;32;20328;-58
2022/01/24 06:03:04;;;;;;;12.37;10.80;;;;;;;1.76;84.45;96826.25;4387262;32;20193;-58
2022/01/24 06:05:33;;;;;;;13.60;11.23;;;;;;;1.73;83.98;96824.81;4376409;32;20297;-58
2022/01/24 06:08:00;;;;;;;12.33;10.87;;;;;;;1.45;84.76;96832.06;4378431;32;20332;-57
2022/01/24 06:10:29;;;;;;;11.23;10.03;;;;;;;1.14;85.48;96830.75;4364008;32;20291;-58
2022/01/24 06:12:57;;;;;;;15.30;11.53;;;;;;;1.02;86.04;96824.50;4383405;32;20291;-58
2022/01/24 06:15:24;;;;;;;13.10;11.40;;;;;;;0.92;85.90;96822.22;4372348;32;20344;-58
2022/01/24 06:17:52;;;;;;;13.85;11.40;;;;;;;0.71;87.19;96829.38;4371776;32;20296;-58
2022/01/24 06:20:18;;;;;;;11.98;10.57;;;;;;;0.70;87.69;96828.56;4386648;32;20180;-58
2022/01/24 06:22:47;;;;;;;15.10;11.45;;;;;;;0.92;86.94;96827.47;4383047;32;20193;-57
2022/01/24 06:25:20;;;;;;;16.37;11.95;;;;;;;1.06;86.50;96828.31;4380320;32;20200;-58
2022/01/24 06:27:48;;;;;;;12.68;10.63;;;;;;;0.86;87.04;96830.03;4376505;32;20185;-58
2022/01/24 06:30:15;;;;;;;14.73;11.12;;;;;;;0.54;87.87;96844.56;4363318;32;20206;-59
2022/01/24 06:32:42;;;;;;;15.02;11.05;;;;;;;0.42;88.75;96846.88;4371541;32;20193;-59
2022/01/24 06:35:10;;;;;;;14.73;12.10;;;;;;;0.59;87.91;96850.81;4376500;32;20207;-58
2022/01/24 06:37:36;;;;;;;17.42;13.73;;;;;;;0.66;87.69;96845.59;4387287;32;20184;-58
2022/01/24 06:40:06;;;;;;;18.67;13.65;;;;;;;0.73;87.43;96848.25;4360973;32;20224;-58
2022/01/24 06:42:32;;;;;;;21.20;14.80;;;;;;;0.82;86.60;96844.50;4352733;32;20185;-59
2022/01/24 06:44:59;;;;;;;18.47;13.77;;;;;;;0.95;86.05;96844.56;4335063;32;20226;-59
2022/01/24 06:47:24;;;;;;;20.92;14.98;;;;;;;1.19;85.47;96849.28;4351889;32;20196;-58
2022/01/24 06:49:52;;;;;;;18.00;13.33;;;;;;;1.07;85.41;96853.44;4371295;32;20192;-58
2022/01/24 06:52:20;;;;;;;13.88;11.65;;;;;;;0.99;85.78;96854.44;4383620;32;20188;-57
2022/01/24 06:54:46;;;;;;;14.30;11.63;;;;;;;1.35;85.05;96848.91;4359260;32;20277;-59
2022/01/24 06:57:19;;;;;;;15.13;12.27;;;;;;;1.44;84.34;96859.19;4388168;32;20188;-59
2022/01/24 06:59:46;;;;;;;13.90;11.13;;;;;;;1.63;83.82;96858.44;4381185;32;20279;-58
2022/01/24 07:02:12;;;;;;;15.00;11.03;;;;;;;1.55;84.21;96863.84;4345764;32;20273;-56
2022/01/24 07:04:39;;;;;;;14.95;11.65;;;;;;;1.61;84.06;96871.69;4376480;32;20302;-58
2022/01/24 07:07:06;;;;;;;14.75;11.57;;;;;;;1.66;84.10;96863.25;4381386;32;20180;-58
2022/01/24 07:09:33;;;;;;;13.50;10.80;;;;;;;1.59;83.85;96862.44;4380498;32;20199;-58
2022/01/24 07:12:02;;;;;;;14.93;12.03;;;;;;;1.45;84.67;96871.25;4359660;32;20364;-58
2022/01/24 07:14:29;;;;;;;19.87;13.07;;;;;;;1.57;84.75;96870.47;4367637;32;20368;-58
2022/01/24 07:19:34;;;;;;;18.47;14.03;;;;;;;1.39;85.71;96872.84;4391282;32;20280;-58
2022/01/24 07:22:07;;;;;;;18.23;13.70;;;;;;;1.33;85.29;96869.22;4370770;32;20212;-57
2022/01/24 07:24:36;;;;;;;14.75;11.77;;;;;;;1.27;85.95;96874.41;4371500;32;20200;-58
2022/01/24 07:27:05;;;;;;;12.65;10.73;;;;;;;1.20;86.03;96887.47;4352572;32;20247;-59
2022/01/24 07:29:30;;;;;;;16.80;13.13;;;;;;;1.28;85.75;96876.81;4353813;32;20189;-58
2022/01/24 07:31:55;;;;;;;16.63;12.33;;;;;;;1.12;86.29;96890.25;4366111;32;20269;-58
2022/01/24 07:34:23;;;;;;;14.30;11.83;;;;;;;1.29;85.90;96883.66;4385336;32;20245;-58
2022/01/24 07:36:50;;;;;;;12.93;11.23;;;;;;;1.17;86.30;96884.44;4371021;32;20282;-58
2022/01/24 07:39:19;;;;;;;13.60;11.40;;;;;;;1.23;86.34;96876.63;4358401;32;20280;-58
2022/01/24 07:41:46;;;;;;;15.25;11.55;;;;;;;1.23;86.63;96881.06;4384566;32;20323;-58
2022/01/24 07:44:14;;;;;;;12.80;11.13;;;;;;;1.28;86.24;96882.06;4389500;32;20188;-58
2022/01/24 07:46:41;;;;;;;13.97;10.53;;;;;;;1.10;86.42;96888.81;4364033;32;20283;-58
2022/01/24 07:49:11;;;;;;;13.43;10.90;;;;;;;0.97;87.43;96889.56;4372236;32;20294;-59
2022/01/24 07:51:39;;;;;;;15.27;11.67;;;;;;;1.15;87.09;96897.69;4383005;32;20188;-58
2022/01/24 07:54:05;;;;;;;14.57;11.23;;;;;;;1.38;86.14;96898.19;4388001;32;20272;-58
2022/01/24 07:56:33;;;;;;;15.10;11.83;;;;;;;1.46;85.75;96904.22;4374301;32;20312;-66
2022/01/24 07:58:58;;;;;;;15.77;12.33;;;;;;;1.72;85.05;96905.09;4376083;32;20298;-57
2022/01/24 08:01:27;;;;;;;38.63;10.27;;;;;;;1.77;84.43;96903.72;4367143;32;20366;-56
2022/01/24 08:03:53;;;;;;;19.50;10.70;;;;;;;3.29;95.60;96896.50;4337964;32;20258;-57
2022/01/24 08:06:19;;;;;;;13.47;9.30;;;;;;;3.52;90.68;96890.75;4366904;32;20280;-54
2022/01/24 08:08:48;;;;;;;12.93;10.63;;;;;;;4.42;91.05;96889.53;4369407;32;20354;-53
2022/01/24 08:11:18;;;;;;;13.20;10.17;;;;;;;4.54;84.53;96887.00;4390044;32;20176;-54
2022/01/24 08:13:43;;;;;;;14.93;11.07;;;;;;;4.62;85.11;96884.91;4347667;32;20332;-51
2022/01/24 08:16:13;;;;;;;11.80;10.60;;;;;;;5.12;81.48;96890.84;4356668;32;20292;-52
2022/01/24 08:18:39;;;;;;;12.67;11.17;;;;;;;5.39;77.96;96887.94;4383799;32;20176;-55
2022/01/24 08:21:09;;;;;;;12.77;10.53;;;;;;;5.27;76.67;96894.94;4347093;32;20320;-60
2022/01/24 08:23:39;;;;;;;10.40;9.40;;;;;;;5.41;74.85;96888.47;4356499;32;20200;-54
2022/01/24 08:26:04;;;;;;;11.23;10.10;;;;;;;5.12;75.80;96897.94;4368803;32;20343;-54
2022/01/24 08:28:29;;;;;;;10.70;9.67;;;;;;;5.55;74.02;96903.09;4356103;32;20328;-54
2022/01/24 08:30:56;;;;;;;13.43;11.43;;;;;;;5.56;75.02;96898.63;4347733;32;20193;-58
2022/01/24 08:33:22;;;;;;;20.50;14.67;;;;;;;4.70;72.14;96915.34;4354319;32;20340;-58
2022/01/24 08:35:48;;;;;;;23.57;15.63;;;;;;;4.05;74.82;96914.87;4385713;32;20291;-57
2022/01/24 08:38:13;;;;;;;27.03;17.13;;;;;;;3.93;76.48;96917.38;4386230;32;20280;-59
2022/01/24 08:40:40;;;;;;;26.60;17.60;;;;;;;3.61;77.75;96910.47;4376345;32;20192;-57
2022/01/24 08:43:06;;;;;;;25.20;16.57;;;;;;;3.42;79.53;96915.59;4390648;32;20271;-59
2022/01/24 08:48:12;;;;;;;16.80;12.93;;;;;;;2.66;82.75;96912.00;4382581;32;20280;-58
2022/01/24 08:50:39;;;;;;;18.23;13.43;;;;;;;2.78;82.64;96910.34;4395853;32;20287;-59
2022/01/24 08:53:04;;;;;;;16.57;11.73;;;;;;;2.69;83.06;96912.41;4386336;32;20302;-59
2022/01/24 08:55:31;;;;;;;15.97;12.10;;;;;;;2.87;83.14;96913.56;4396312;32;20284;-58
2022/01/24 08:57:58;;;;;;;15.60;11.67;;;;;;;3.12;82.41;96917.94;4387035;32;20246;-58
2022/01/24 09:00:24;;;;;;;16.47;11.90;;;;;;;2.87;82.46;96916.19;4394964;32;20297;-58
2022/01/24 09:02:50;;;;;;;14.83;12.70;;;;;;;3.00;82.65;96913.53;4392476;32;20280;-58
2022/01/24 09:05:22;;;;;;;16.33;12.47;;;;;;;3.23;82.18;96916.50;4365877;32;20354;-60
2022/01/24 09:07:53;;;;;;;17.23;12.43;;;;;;;3.18;82.12;96921.53;4369494;32;20280;-58
2022/01/24 09:10:24;;;;;;;15.70;11.87;;;;;;;2.82;82.93;96922.03;4381460;32;20267;-59
2022/01/24 09:12:51;;;;;;;17.63;12.53;;;;;;;2.85;83.45;96920.84;4335041;32;20333;-57
2022/01/24 09:15:18;;;;;;;18.40;13.37;;;;;;;2.73;84.08;96923.25;4385764;32;20329;-58
2022/01/24 09:17:45;;;;;;;19.13;12.43;;;;;;;2.60;85.04;96925.91;4394227;32;20362;-59
2022/01/24 09:20:11;;;;;;;18.70;13.53;;;;;;;2.75;84.06;96927.28;4379408;32;20294;-59
2022/01/24 09:22:39;;;;;;;18.20;13.20;;;;;;;2.98;83.86;96926.84;4389953;32;20273;-59
2022/01/24 09:25:10;;;;;;;19.37;13.83;;;;;;;3.07;83.13;96930.88;4395859;32;20307;-67
2022/01/24 09:27:38;;;;;;;19.93;14.00;;;;;;;3.08;83.41;96939.53;4385207;32;20285;-61
2022/01/24 09:30:07;;;;;;;19.13;13.53;;;;;;;3.28;82.62;96929.78;4388920;32;20324;-56
2022/01/24 09:32:32;;;;;;;21.10;13.60;;;;;;;3.26;82.49;96934.44;4391923;32;20305;-55
2022/01/24 09:34:58;;;;;;;17.93;13.20;;;;;;;3.31;82.63;96939.88;4359468;32;20315;-57
2022/01/24 09:37:24;;;;;;;21.97;13.37;;;;;;;3.37;82.64;96936.41;4393706;32;23744;-57
2022/01/24 09:39:52;;;;;;;18.30;13.10;;;;;;;3.58;81.58;96943.19;4339742;32;20181;-58
2022/01/24 09:42:20;;;;;;;15.97;12.03;;;;;;;3.52;81.38;96944.03;4363994;32;20317;-57
2022/01/24 09:44:45;;;;;;;16.40;12.33;;;;;;;3.65;81.23;96932.66;4395069;32;20316;-57
2022/01/24 09:47:17;;;;;;;15.00;12.43;;;;;;;3.68;81.49;96948.00;4387622;32;20288;-57
2022/01/24 09:49:48;;;;;;;19.20;13.53;;;;;;;3.64;80.83;96944.97;4360346;32;20307;-58
2022/01/24 09:52:14;;;;;;;17.53;13.07;;;;;;;3.73;80.84;96941.09;4372421;32;20283;-58
2022/01/24 09:54:40;;;;;;;18.77;13.33;;;;;;;3.69;81.35;96939.91;4367082;32;20272;-57
2022/01/24 09:57:07;;;;;;;17.90;13.63;;;;;;;3.58;81.69;96945.00;4400163;32;20358;-56
2022/01/24 09:59:33;;;;;;;20.70;13.77;;;;;;;3.74;81.38;96941.91;4362913;32;20207;-57
2022/01/24 10:02:02;;;;;;;19.00;13.77;;;;;;;3.78;81.40;96945.69;4366705;32;20328;-55
2022/01/24 10:04:33;;;;;;;25.57;16.13;;;;;;;3.79;81.33;96944.69;4359529;32;20299;-54
2022/01/24 10:07:03;;;;;;;20.33;15.23;;;;;;;3.52;82.09;96951.91;4348542;32;20399;-58
2022/01/24 10:09:54;;;;;;;24.30;15.13;;;;;;;3.42;83.48;96954.94;4369184;32;20275;-57
2022/01/24 10:18:07;;;;;;;24.37;14.53;;;;;;;3.19;83.80;96954.63;4354481;32;20304;-54
2022/01/24 10:20:37;;;;;;;21.90;13.87;;;;;;;3.18;84.56;96950.38;4381051;32;20268;-55
2022/01/24 10:23:12;;;;;;;21.13;13.13;;;;;;;3.05;84.77;96947.81;4364568;32;20356;-54
2022/01/24 10:26:03;;;;;;;17.53;12.23;;;;;;;3.12;84.91;96946.75;4349022;32;20298;-55
2022/01/24 10:28:47;;;;;;;22.60;14.40;;;;;;;3.45;84.14;96946.66;4354407;32;20288;-57
2022/01/24 10:31:31;;;;;;;19.57;12.90;;;;;;;3.73;82.67;96951.59;4387253;32;20280;-58
2022/01/24 10:34:13;;;;;;;19.03;12.57;;;;;;;3.97;81.79;96946.59;4366495;32;20292;-53
2022/01/24 10:36:54;;;;;;;17.30;12.10;;;;;;;3.76;81.78;96939.84;4392958;32;20294;-57
2022/01/24 10:42:41;;;;;;;18.87;6.97;;;;;;;3.23;84.35;96932.22;4381888;32;20318;-50
2022/01/24 10:45:23;;;;;;;10.63;6.07;;;;;;;7.93;100.00;96915.63;4337624;32;20348;-51
2022/01/24 10:47:52;;;;;;;10.30;8.20;;;;;;;10.32;79.82;96912.63;4330182;32;20281;-48
2022/01/24 10:50:29;;;;;;;12.27;10.10;;;;;;;12.24;65.73;96906.72;4320987;32;20339;-48
2022/01/24 10:52:57;;;;;;;13.03;11.03;;;;;;;13.24;56.56;96914.94;4368851;32;20294;-58
2022/01/24 10:55:28;;;;;;;11.87;10.60;;;;;;;11.50;52.16;96909.66;4359227;32;20242;-56
2022/01/24 10:58:13;;;;;;;14.50;11.70;;;;;;;9.34;57.65;96926.88;4367259;32;20201;-55
2022/01/24 11:00:40;;;;;;;13.57;11.07;;;;;;;7.90;62.68;96929.31;4375493;32;20254;-57
2022/01/24 11:03:15;;;;;;;13.53;11.60;;;;;;;6.70;67.19;96935.25;4386510;32;20228;-57
2022/01/24 11:05:43;;;;;;;12.37;10.43;;;;;;;6.04;70.36;96922.31;4386983;32;20180;-54
2022/01/24 11:08:15;;;;;;;13.63;10.37;;;;;;;5.28;73.45;96923.66;4358421;32;20284;-57
2022/01/24 11:10:52;;;;;;;11.97;10.70;;;;;;;4.99;76.13;96925.16;4331506;32;20379;-56
2022/01/24 11:13:24;;;;;;;15.50;12.33;;;;;;;5.07;75.84;96922.25;4344149;32;20359;-56
2022/01/24 11:15:58;;;;;;;13.67;11.23;;;;;;;4.77;76.88;96927.44;4332323;32;20341;-55
2022/01/24 11:18:26;;;;;;;17.63;13.30;;;;;;;4.96;76.57;96919.56;4362963;32;20379;-55
2022/01/24 11:21:01;;;;;;;17.40;13.27;;;;;;;4.54;77.74;96916.72;4392396;32;20316;-54
2022/01/24 11:23:29;;;;;;;18.50;13.63;;;;;;;4.39;78.83;96909.16;4379683;32;20275;-56
2022/01/24 11:26:01;;;;;;;17.33;12.57;;;;;;;4.41;79.16;96912.34;4352441;32;20356;-55
2022/01/24 11:28:32;;;;;;;15.17;12.83;;;;;;;4.04;81.00;96911.44;4372031;32;20271;-56
2022/01/24 11:31:15;;;;;;;23.77;16.87;;;;;;;4.04;80.70;96905.38;4373885;32;20315;-54
2022/01/24 11:33:47;;;;;;;12.53;11.10;;;;;;;3.97;81.85;96905.41;4322615;32;20281;-55
2022/01/24 11:36:12;;;;;;;16.00;12.50;;;;;;;4.16;81.51;96905.50;4374938;32;20269;-55
2022/01/24 11:38:43;;;;;;;14.47;12.70;;;;;;;4.20;80.99;96904.03;4371563;32;20294;-62
2022/01/24 11:41:33;;;;;;;13.27;11.67;;;;;;;4.23;81.20;96898.37;4353209;32;20326;-54
2022/01/24 11:44:08;;;;;;;13.27;10.23;;;;;;;4.18;81.63;96904.25;4365360;32;20385;-56
2022/01/24 11:46:49;;;;;;;12.97;11.67;;;;;;;4.28;81.29;96896.72;4334965;32;20280;-57
2022/01/24 11:49:36;;;;;;;17.80;13.60;;;;;;;4.47;80.93;96901.00;4369046;32;20287;-55
2022/01/24 11:52:04;;;;;;;13.17;11.63;;;;;;;4.38;81.17;96898.84;4355377;32;20299;-57
2022/01/24 11:55:02;;;;;;;13.93;11.30;;;;;;;4.30;81.65;96899.13;4362781;32;20276;-57
2022/01/24 11:57:47;;;;;;;14.87;11.60;;;;;;;4.43;81.16;96889.31;4335544;32;20295;-55
2022/01/24 12:00:16;;;;;;;13.80;11.73;;;;;;;4.73;80.63;96886.81;4341724;32;20274;-56
2022/01/24 12:02:49;;;;;;;15.13;12.40;;;;;;;4.61;81.08;96885.09;4365165;32;20283;-59
2022/01/24 12:05:24;;;;;;;14.60;12.30;;;;;;;4.50;81.48;96878.75;4365145;32;20298;-58
2022/01/24 12:08:13;;;;;;;14.13;11.77;;;;;;;4.37;82.04;96877.03;4359207;32;20281;-53
2022/01/24 12:10:44;;;;;;;13.27;11.83;;;;;;;4.49;82.17;96887.66;4363812;32;20296;-59
2022/01/24 12:13:37;;;;;;;12.50;11.23;;;;;;;4.56;81.77;96875.28;4370990;32;20288;-55
2022/01/24 12:16:08;;;;;;;14.17;11.30;;;;;;;4.26;82.04;96877.75;4336793;32;20270;-53
2022/01/24 12:18:47;;;;;;;15.60;11.73;;;;;;;4.24;82.96;96877.16;4372718;32;20286;-53
2022/01/24 12:21:26;;;;;;;13.13;11.20;;;;;;;4.22;82.97;96875.75;4359052;32;20263;-56
2022/01/24 12:24:04;;;;;;;14.67;12.07;;;;;;;4.22;83.01;96871.31;4332263;32;20312;-51
2022/01/24 12:27:04;;;;;;;16.37;11.83;;;;;;;4.26;83.36;96867.22;4322453;32;20285;-55
2022/01/24 12:29:31;;;;;;;15.20;12.10;;;;;;;4.29;83.23;96868.63;4343977;32;20284;-56
2022/01/24 12:31:59;;;;;;;15.07;12.33;;;;;;;4.40;82.78;96868.72;4353775;32;20284;-57
2022/01/24 12:34:33;;;;;;;15.90;11.67;;;;;;;4.34;83.14;96866.97;4337491;32;20375;-55
2022/01/24 12:37:08;;;;;;;14.23;11.17;;;;;;;4.36;83.07;96867.56;4339423;32;20272;-55
2022/01/24 12:39:51;;;;;;;14.93;12.40;;;;;;;4.35;83.46;96870.41;4363948;32;20328;-54
2022/01/24 12:42:50;;;;;;;20.93;13.47;;;;;;;4.65;82.58;96855.56;4374579;32;20276;-54
2022/01/24 12:48:08;;;;;;;18.97;12.67;;;;;;;4.58;82.98;96860.06;4357812;32;20311;-57
2022/01/24 12:50:33;;;;;;;19.80;14.97;;;;;;;4.51;82.76;96861.97;4370143;32;20284;-58
2022/01/24 12:53:00;;;;;;;16.60;13.40;;;;;;;4.52;82.75;96855.69;4349341;32;20327;-56
2022/01/24 12:55:30;;;;;;;16.70;12.53;;;;;;;4.68;82.10;96849.88;4360192;32;20271;-57
2022/01/24 12:57:56;;;;;;;16.17;13.00;;;;;;;4.66;81.91;96851.09;4379987;32;20275;-54
2022/01/24 13:00:22;;;;;;;14.70;11.70;;;;;;;4.56;82.41;96850.81;4342559;32;20343;-55
2022/01/24 13:02:47;;;;;;;15.27;11.97;;;;;;;4.66;82.36;96851.09;4377961;32;20189;-58
2022/01/24 13:05:23;;;;;;;27.93;17.47;;;;;;;4.74;81.86;96848.19;4365440;32;20203;-56
2022/01/24 13:07:54;;;;;;;25.90;18.20;;;;;;;4.79;81.79;96843.88;4354074;32;20271;-57
2022/01/24 13:10:26;;;;;;;16.83;13.23;;;;;;;4.77;81.45;96838.06;4352123;32;20273;-58
2022/01/24 13:13:01;;;;;;;16.93;12.23;;;;;;;5.07;80.80;96839.94;4378960;32;20265;-56
2022/01/24 13:21:16;;;;;;;15.33;12.57;;;;;;;5.01;80.85;96822.41;4346959;32;20480;-56
2022/01/24 13:24:00;;;;;;;15.37;12.17;;;;;;;5.09;80.76;96822.09;4356929;32;20285;-56
2022/01/24 13:26:26;;;;;;;18.43;12.63;;;;;;;4.74;81.58;96827.97;4382150;32;20358;-56
2022/01/24 13:29:11;;;;;;;17.37;13.73;;;;;;;4.45;83.18;96810.28;4341864;32;20313;-54
2022/01/24 13:31:36;;;;;;;18.10;14.77;;;;;;;4.58;83.16;96825.09;4310682;32;20295;-58
2022/01/24 13:34:08;;;;;;;18.00;14.17;;;;;;;4.38;84.35;96815.59;4359675;32;20284;-52
2022/01/24 13:36:34;;;;;;;32.73;22.77;;;;;;;4.34;84.12;96821.50;4359789;32;20228;-56
2022/01/24 13:39:00;;;;;;;21.47;16.33;;;;;;;4.35;84.47;96823.94;4324982;32;20298;-55